createdAt,value
2023-03-30T00:00:42.008Z,1.16
2023-03-30T00:01:42.066Z,1.18
2023-03-30T00:02:42.231Z,1.14
2023-03-30T00:03:42.402Z,1.18
2023-03-30T00:04:42.255Z,1.16
2023-03-30T00:05:42.268Z,1.17
2023-03-30T00:06:42.384Z,1.16
2023-03-30T00:07:42.400Z,1.14
2023-03-30T00:08:42.701Z,1.13
2023-03-30T00:09:42.488Z,1.14
2023-03-30T00:10:42.552Z,1.15
2023-03-30T00:11:42.590Z,1.15
2023-03-30T00:12:42.641Z,1.16
2023-03-30T00:13:42.704Z,1.15
2023-03-30T00:14:42.764Z,1.16
2023-03-30T00:15:42.831Z,1.13
2023-03-30T00:16:43.804Z,1.13
2023-03-30T00:17:43.003Z,1.15
2023-03-30T00:18:43.039Z,1.13
2023-03-30T00:19:43.096Z,1.13
2023-03-30T00:20:43.317Z,1.13
2023-03-30T00:21:43.161Z,1.12
2023-03-30T00:22:43.201Z,1.11
2023-03-30T00:23:43.250Z,1.12
2023-03-30T00:24:43.301Z,1.09
2023-03-30T00:25:43.364Z,1.12
2023-03-30T00:26:43.427Z,1.11
2023-03-30T00:27:43.521Z,1.08
2023-03-30T00:28:43.564Z,1.12
2023-03-30T00:29:43.604Z,1.11
2023-03-30T00:30:43.671Z,1.10
2023-03-30T00:31:43.757Z,1.08
2023-03-30T00:32:43.853Z,1.10
2023-03-30T00:34:43.926Z,1.11
2023-03-30T00:35:43.995Z,1.09
2023-03-30T00:36:44.100Z,1.11
2023-03-30T00:37:44.162Z,1.09
2023-03-30T00:38:44.229Z,1.10
2023-03-30T00:39:44.175Z,1.11
2023-03-30T00:40:44.217Z,1.09
2023-03-30T00:41:44.263Z,1.09
2023-03-30T00:42:44.326Z,1.09
2023-03-30T00:43:44.359Z,1.08
2023-03-30T00:44:44.418Z,1.08
2023-03-30T00:45:44.536Z,1.09
2023-03-30T00:46:44.525Z,1.09
2023-03-30T00:47:44.623Z,1.08
2023-03-30T00:48:44.678Z,1.09
2023-03-30T00:49:44.651Z,1.08
2023-03-30T00:50:44.758Z,1.08
2023-03-30T00:51:44.736Z,1.07
2023-03-30T00:52:44.782Z,1.08
2023-03-30T00:53:44.882Z,1.08
2023-03-30T00:54:45.180Z,1.08
2023-03-30T00:55:44.857Z,1.07
2023-03-30T00:56:44.963Z,1.06
2023-03-30T00:57:45.676Z,1.07
2023-03-30T00:58:44.997Z,1.07
2023-03-30T00:59:45.668Z,1.06
2023-03-30T01:00:45.071Z,1.06
2023-03-30T01:01:45.146Z,1.07
2023-03-30T01:02:45.254Z,1.06
2023-03-30T01:03:45.299Z,1.05
2023-03-30T01:04:45.278Z,1.05
2023-03-30T01:05:45.327Z,1.06
2023-03-30T01:06:45.344Z,1.07
2023-03-30T01:07:45.395Z,1.06
2023-03-30T01:08:45.431Z,1.06
2023-03-30T01:09:45.494Z,1.04
2023-03-30T01:10:45.546Z,1.03
2023-03-30T01:11:45.606Z,1.04
2023-03-30T01:12:45.657Z,1.01
2023-03-30T01:13:45.710Z,1.02
2023-03-30T01:14:45.773Z,1.04
2023-03-30T01:15:45.856Z,1.04
2023-03-30T01:16:45.973Z,1.04
2023-03-30T01:17:46.015Z,1.04
2023-03-30T01:18:46.056Z,1.04
2023-03-30T01:19:46.131Z,1.04
2023-03-30T01:20:46.202Z,1.04
2023-03-30T01:21:46.258Z,1.03
2023-03-30T01:22:46.344Z,1.03
2023-03-30T01:23:46.380Z,1.03
2023-03-30T01:24:46.447Z,1.03
2023-03-30T01:25:46.497Z,1.03
2023-03-30T01:26:46.548Z,1.05
2023-03-30T01:27:46.600Z,1.03
2023-03-30T01:28:46.622Z,1.04
2023-03-30T01:29:46.754Z,1.02
2023-03-30T01:30:46.713Z,1.01
2023-03-30T01:31:46.795Z,1.04
2023-03-30T01:32:46.846Z,1.02
2023-03-30T01:33:46.817Z,1.03
2023-03-30T01:34:46.854Z,1.02
2023-03-30T01:35:46.947Z,1.02
2023-03-30T01:36:46.877Z,1.02
2023-03-30T01:37:46.946Z,1.03
2023-03-30T01:38:46.932Z,1.00
2023-03-30T01:39:46.964Z,0.98
2023-03-30T01:40:46.964Z,1.01
2023-03-30T01:41:47.029Z,1.01
2023-03-30T01:42:47.121Z,1.01
2023-03-30T01:43:47.154Z,1.01
2023-03-30T01:44:47.159Z,1.00
2023-03-30T01:45:47.180Z,1.01
2023-03-30T01:46:47.216Z,1.01
2023-03-30T01:47:47.257Z,1.01
2023-03-30T01:48:47.268Z,0.99
2023-03-30T01:49:47.283Z,1.01
2023-03-30T01:50:47.318Z,1.00
2023-03-30T01:51:47.380Z,1.01
2023-03-30T01:52:49.178Z,1.01
2023-03-30T01:53:47.452Z,1.01
2023-03-30T01:54:47.467Z,1.02
2023-03-30T01:55:47.478Z,1.00
2023-03-30T01:56:47.525Z,1.00
2023-03-30T01:57:47.511Z,1.01
2023-03-30T01:58:47.532Z,1.01
2023-03-30T01:59:47.513Z,1.00
2023-03-30T02:00:47.511Z,1.00
2023-03-30T02:01:47.564Z,1.00
2023-03-30T02:02:47.596Z,0.99
2023-03-30T02:03:47.647Z,1.01
2023-03-30T02:04:47.592Z,0.99
2023-03-30T02:05:47.558Z,0.98
2023-03-30T02:06:47.570Z,0.99
2023-03-30T02:07:47.555Z,0.97
2023-03-30T02:08:47.560Z,0.98
2023-03-30T02:09:47.574Z,0.99
2023-03-30T02:10:47.602Z,0.98
2023-03-30T02:11:47.581Z,0.99
2023-03-30T02:12:47.592Z,0.98
2023-03-30T02:13:47.589Z,0.98
2023-03-30T02:14:47.601Z,0.98
2023-03-30T02:15:47.611Z,0.99
2023-03-30T02:16:48.196Z,0.97
2023-03-30T02:17:47.701Z,0.98
2023-03-30T02:18:47.685Z,0.95
2023-03-30T02:19:48.178Z,0.98
2023-03-30T02:20:47.614Z,0.95
2023-03-30T02:21:47.621Z,0.97
2023-03-30T02:22:47.664Z,0.96
2023-03-30T02:23:47.648Z,0.98
2023-03-30T02:24:47.651Z,0.97
2023-03-30T02:25:47.647Z,0.96
2023-03-30T02:26:47.775Z,0.96
2023-03-30T02:27:47.655Z,0.96
2023-03-30T02:28:47.673Z,0.98
2023-03-30T02:29:47.685Z,0.96
2023-03-30T02:30:47.704Z,0.95
2023-03-30T02:31:47.731Z,0.95
2023-03-30T02:32:47.755Z,0.96
2023-03-30T02:33:47.696Z,0.97
2023-03-30T02:34:47.696Z,0.95
2023-03-30T02:35:47.788Z,0.96
2023-03-30T02:36:47.711Z,0.95
2023-03-30T02:37:47.719Z,0.96
2023-03-30T02:38:47.724Z,0.95
2023-03-30T02:39:47.740Z,0.97
2023-03-30T02:40:47.741Z,0.95
2023-03-30T02:41:47.750Z,0.95
2023-03-30T02:42:47.922Z,0.95
2023-03-30T02:43:47.801Z,0.95
2023-03-30T02:44:47.781Z,0.94
2023-03-30T02:45:48.733Z,0.93
2023-03-30T02:46:48.669Z,0.94
2023-03-30T02:47:47.903Z,0.95
2023-03-30T02:48:47.803Z,0.93
2023-03-30T02:49:47.816Z,0.96
2023-03-30T02:50:48.670Z,0.94
2023-03-30T02:51:47.880Z,0.95
2023-03-30T02:52:47.821Z,0.93
2023-03-30T02:53:47.830Z,0.96
2023-03-30T02:54:47.840Z,0.95
2023-03-30T02:55:47.835Z,0.95
2023-03-30T02:56:47.884Z,0.95
2023-03-30T02:57:47.852Z,0.93
2023-03-30T02:58:47.856Z,0.93
2023-03-30T02:59:47.881Z,0.94
2023-03-30T03:00:47.856Z,0.94
2023-03-30T03:01:47.966Z,0.95
2023-03-30T03:02:47.960Z,0.93
2023-03-30T03:03:47.977Z,0.93
2023-03-30T03:04:47.872Z,0.95
2023-03-30T03:05:47.889Z,0.94
2023-03-30T03:06:47.908Z,0.92
2023-03-30T03:07:47.891Z,0.95
2023-03-30T03:08:47.934Z,0.94
2023-03-30T03:09:47.914Z,0.94
2023-03-30T03:10:47.924Z,0.93
2023-03-30T03:11:47.938Z,0.93
2023-03-30T03:12:47.946Z,0.93
2023-03-30T03:13:47.980Z,0.93
2023-03-30T03:14:48.001Z,0.94
2023-03-30T03:15:48.034Z,0.94
2023-03-30T03:16:48.136Z,0.92
2023-03-30T03:17:48.102Z,0.93
2023-03-30T03:18:48.091Z,0.91
2023-03-30T03:19:48.119Z,0.92
2023-03-30T03:20:48.169Z,0.92
2023-03-30T03:21:48.205Z,0.91
2023-03-30T03:22:48.272Z,0.93
2023-03-30T03:23:48.413Z,0.92
2023-03-30T03:24:48.406Z,0.94
2023-03-30T03:25:48.459Z,0.92
2023-03-30T03:26:48.502Z,0.92
2023-03-30T03:27:48.573Z,0.91
2023-03-30T03:28:48.649Z,0.91
2023-03-30T03:29:48.721Z,0.92
2023-03-30T03:30:48.819Z,0.91
2023-03-30T03:31:48.815Z,0.92
2023-03-30T03:32:48.979Z,0.90
2023-03-30T03:33:48.951Z,0.92
2023-03-30T03:34:48.993Z,0.91
2023-03-30T03:35:49.081Z,0.92
2023-03-30T03:36:49.138Z,0.91
2023-03-30T03:37:49.205Z,0.90
2023-03-30T03:38:49.298Z,0.92
2023-03-30T03:39:49.372Z,0.91
2023-03-30T03:40:49.447Z,0.89
2023-03-30T03:41:49.515Z,0.92
2023-03-30T03:42:49.593Z,0.90
2023-03-30T03:43:49.670Z,0.92
2023-03-30T03:44:49.749Z,0.89
2023-03-30T03:45:49.825Z,0.90
2023-03-30T03:46:49.983Z,0.91
2023-03-30T03:47:49.996Z,0.92
2023-03-30T03:48:50.046Z,0.90
2023-03-30T03:49:50.121Z,0.91
2023-03-30T03:50:50.193Z,0.91
2023-03-30T03:51:50.264Z,0.89
2023-03-30T03:52:50.337Z,0.89
2023-03-30T03:53:50.408Z,0.91
2023-03-30T03:54:50.473Z,0.90
2023-03-30T03:55:50.549Z,0.91
2023-03-30T03:56:50.675Z,0.93
2023-03-30T03:57:50.688Z,0.89
2023-03-30T03:58:50.757Z,0.91
2023-03-30T03:59:51.678Z,0.91
2023-03-30T04:00:50.957Z,0.89
2023-03-30T04:01:51.002Z,0.90
2023-03-30T04:02:51.076Z,0.88
2023-03-30T04:03:51.130Z,0.89
2023-03-30T04:04:51.282Z,0.91
2023-03-30T04:05:51.297Z,0.89
2023-03-30T04:06:51.290Z,0.88
2023-03-30T04:07:51.372Z,0.89
2023-03-30T04:08:51.433Z,0.90
2023-03-30T04:09:51.529Z,0.88
2023-03-30T04:10:51.562Z,0.89
2023-03-30T04:11:51.629Z,0.90
2023-03-30T04:12:51.700Z,0.88
2023-03-30T04:13:51.776Z,0.90
2023-03-30T04:14:51.843Z,0.89
2023-03-30T04:15:51.951Z,0.88
2023-03-30T04:16:52.086Z,0.87
2023-03-30T04:17:52.108Z,0.87
2023-03-30T04:18:52.131Z,0.89
2023-03-30T04:19:52.187Z,0.88
2023-03-30T04:20:52.256Z,0.87
2023-03-30T04:21:52.331Z,0.87
2023-03-30T04:22:52.393Z,0.87
2023-03-30T04:23:52.477Z,0.87
2023-03-30T04:24:52.558Z,0.87
2023-03-30T04:25:52.599Z,0.87
2023-03-30T04:26:52.670Z,0.88
2023-03-30T04:27:52.724Z,0.88
2023-03-30T04:28:52.785Z,0.87
2023-03-30T04:29:52.858Z,0.88
2023-03-30T04:30:52.930Z,0.86
2023-03-30T04:31:53.046Z,0.87
2023-03-30T04:32:53.165Z,0.85
2023-03-30T04:33:53.271Z,0.89
2023-03-30T04:34:53.209Z,0.86
2023-03-30T04:35:53.304Z,0.88
2023-03-30T04:36:53.330Z,0.86
2023-03-30T04:37:53.402Z,0.86
2023-03-30T04:38:53.469Z,0.86
2023-03-30T04:39:54.162Z,0.87
2023-03-30T04:40:53.606Z,0.87
2023-03-30T04:41:54.672Z,0.87
2023-03-30T04:42:53.734Z,0.86
2023-03-30T04:43:53.801Z,0.86
2023-03-30T04:44:53.916Z,0.86
2023-03-30T04:45:53.944Z,0.86
2023-03-30T04:46:54.006Z,0.85
2023-03-30T04:47:54.135Z,0.86
2023-03-30T04:48:55.090Z,0.86
2023-03-30T04:49:54.083Z,0.86
2023-03-30T04:50:54.113Z,0.86
2023-03-30T04:51:54.085Z,0.86
2023-03-30T04:52:54.112Z,0.86
2023-03-30T04:53:54.109Z,0.85
2023-03-30T04:54:54.113Z,0.84
2023-03-30T04:55:54.108Z,0.83
2023-03-30T04:56:54.227Z,0.85
2023-03-30T04:57:54.247Z,0.86
2023-03-30T04:58:54.394Z,0.87
2023-03-30T04:59:54.741Z,0.84
2023-03-30T05:00:54.614Z,0.84
2023-03-30T05:01:54.537Z,0.86
2023-03-30T05:02:54.689Z,0.84
2023-03-30T05:03:54.744Z,0.84
2023-03-30T05:04:54.754Z,0.84
2023-03-30T05:05:54.826Z,0.85
2023-03-30T05:06:54.859Z,0.83
2023-03-30T05:07:54.872Z,0.83
2023-03-30T05:08:54.878Z,0.82
2023-03-30T05:09:54.887Z,0.84
2023-03-30T05:10:54.904Z,0.83
2023-03-30T05:11:54.924Z,0.84
2023-03-30T05:12:54.948Z,0.83
2023-03-30T05:13:54.955Z,0.81
2023-03-30T05:14:54.972Z,0.83
2023-03-30T05:15:54.980Z,0.85
2023-03-30T05:16:55.057Z,0.82
2023-03-30T05:17:55.060Z,0.84
2023-03-30T05:18:55.041Z,0.83
2023-03-30T05:19:55.660Z,0.85
2023-03-30T05:20:55.056Z,0.86
2023-03-30T05:21:55.069Z,0.87
2023-03-30T05:22:55.077Z,0.88
2023-03-30T05:23:55.091Z,0.89
2023-03-30T05:24:55.103Z,0.90
2023-03-30T05:25:55.336Z,0.96
2023-03-30T05:26:55.171Z,1.00
2023-03-30T05:27:55.129Z,1.05
2023-03-30T05:28:55.157Z,1.06
2023-03-30T05:29:55.144Z,1.17
2023-03-30T05:30:55.252Z,1.19
2023-03-30T05:31:55.175Z,1.22
2023-03-30T05:32:55.205Z,1.36
2023-03-30T05:33:55.191Z,1.31
2023-03-30T05:34:55.184Z,1.28
2023-03-30T05:35:55.233Z,1.33
2023-03-30T05:36:55.210Z,1.36
2023-03-30T05:37:55.201Z,1.36
2023-03-30T05:38:55.260Z,1.37
2023-03-30T05:39:55.207Z,1.38
2023-03-30T05:40:55.201Z,1.42
2023-03-30T05:41:55.215Z,1.45
2023-03-30T05:42:55.224Z,1.46
2023-03-30T05:43:56.179Z,1.46
2023-03-30T05:44:55.231Z,1.43
2023-03-30T05:45:55.248Z,1.48
2023-03-30T05:46:55.232Z,1.44
2023-03-30T05:47:55.273Z,1.41
2023-03-30T05:48:55.319Z,1.40
2023-03-30T05:49:55.245Z,1.45
2023-03-30T05:50:55.247Z,1.41
2023-03-30T05:51:55.251Z,1.40
2023-03-30T05:52:55.262Z,1.39
2023-03-30T05:53:55.250Z,1.41
2023-03-30T05:54:55.254Z,1.40
2023-03-30T05:55:55.249Z,1.42
2023-03-30T05:56:55.263Z,1.39
2023-03-30T05:57:55.258Z,1.39
2023-03-30T05:58:55.278Z,1.41
2023-03-30T05:59:55.291Z,1.37
2023-03-30T06:00:55.297Z,1.31
2023-03-30T06:01:55.304Z,1.24
2023-03-30T06:02:55.409Z,1.23
2023-03-30T06:03:56.263Z,1.26
2023-03-30T06:04:55.353Z,1.33
2023-03-30T06:05:55.337Z,1.35
2023-03-30T06:06:55.348Z,1.34
2023-03-30T06:07:55.359Z,1.35
2023-03-30T06:08:55.374Z,1.36
2023-03-30T06:09:55.399Z,1.40
2023-03-30T06:10:55.422Z,1.38
2023-03-30T06:11:55.457Z,1.35
2023-03-30T06:12:55.482Z,1.36
2023-03-30T06:13:55.496Z,1.36
2023-03-30T06:14:55.536Z,1.32
2023-03-30T06:15:55.548Z,1.34
2023-03-30T06:16:55.572Z,1.36
2023-03-30T06:17:55.556Z,1.35
2023-03-30T06:18:55.564Z,1.35
2023-03-30T06:19:55.575Z,1.35
2023-03-30T06:20:55.584Z,1.35
2023-03-30T06:21:55.588Z,1.36
2023-03-30T06:22:55.606Z,1.37
2023-03-30T06:23:55.623Z,1.41
2023-03-30T06:24:55.658Z,1.43
2023-03-30T06:25:55.766Z,1.50
2023-03-30T06:26:56.659Z,1.50
2023-03-30T06:27:56.445Z,1.51
2023-03-30T06:28:55.791Z,1.57
2023-03-30T06:29:55.803Z,1.95
2023-03-30T06:30:55.794Z,2.13
2023-03-30T06:31:55.872Z,2.18
2023-03-30T06:32:55.870Z,2.16
2023-03-30T06:33:56.017Z,2.00
2023-03-30T06:34:55.880Z,1.91
2023-03-30T06:35:55.996Z,1.95
2023-03-30T06:36:55.918Z,1.89
2023-03-30T06:37:55.954Z,1.97
2023-03-30T06:38:55.983Z,1.98
2023-03-30T06:39:55.987Z,2.03
2023-03-30T06:40:56.013Z,2.03
2023-03-30T06:41:56.026Z,2.09
2023-03-30T06:42:56.053Z,2.02
2023-03-30T06:43:56.072Z,2.06
2023-03-30T06:44:56.099Z,2.09
2023-03-30T06:45:56.152Z,2.07
2023-03-30T06:46:56.112Z,2.07
2023-03-30T06:47:56.347Z,2.05
2023-03-30T06:48:56.126Z,2.07
2023-03-30T06:49:56.154Z,2.03
2023-03-30T06:50:56.152Z,2.10
2023-03-30T06:51:56.163Z,2.09
2023-03-30T06:52:56.188Z,2.12
2023-03-30T06:53:56.201Z,2.09
2023-03-30T06:54:56.220Z,2.07
2023-03-30T06:55:56.237Z,2.10
2023-03-30T06:56:56.255Z,2.06
2023-03-30T06:57:56.264Z,2.11
2023-03-30T06:58:56.332Z,2.05
2023-03-30T06:59:56.354Z,2.12
2023-03-30T07:00:56.695Z,2.07
2023-03-30T07:01:56.421Z,2.06
2023-03-30T07:02:56.334Z,2.05
2023-03-30T07:03:56.507Z,2.03
2023-03-30T07:04:56.468Z,2.05
2023-03-30T07:05:56.395Z,2.04
2023-03-30T07:06:56.421Z,2.03
2023-03-30T07:07:56.414Z,2.09
2023-03-30T07:08:56.499Z,2.01
2023-03-30T07:09:56.424Z,1.97
2023-03-30T07:10:56.509Z,1.96
2023-03-30T07:11:56.806Z,1.98
2023-03-30T07:12:56.488Z,1.94
2023-03-30T07:13:56.527Z,1.98
2023-03-30T07:14:56.496Z,1.94
2023-03-30T07:15:56.739Z,2.19
2023-03-30T07:16:57.104Z,2.21
2023-03-30T07:17:57.137Z,2.30
2023-03-30T07:18:56.600Z,2.33
2023-03-30T07:19:56.581Z,2.40
2023-03-30T07:20:56.618Z,2.28
2023-03-30T07:21:56.647Z,1.89
2023-03-30T07:22:56.676Z,1.66
2023-03-30T07:23:56.770Z,1.49
2023-03-30T07:24:56.707Z,1.44
2023-03-30T07:25:56.710Z,1.34
2023-03-30T07:26:56.783Z,1.27
2023-03-30T07:27:56.734Z,1.27
2023-03-30T07:28:56.720Z,1.26
2023-03-30T07:30:02.619Z,1.27
2023-03-30T07:30:58.677Z,1.28
2023-03-30T07:31:56.799Z,1.28
2023-03-30T07:32:58.696Z,1.37
2023-03-30T07:33:56.758Z,1.53
2023-03-30T07:34:56.727Z,1.80
2023-03-30T07:35:56.786Z,2.26
2023-03-30T07:36:56.738Z,2.28
2023-03-30T07:38:56.745Z,2.28
2023-03-30T07:39:56.774Z,2.29
2023-03-30T07:40:56.761Z,2.32
2023-03-30T07:41:56.782Z,2.31
2023-03-30T07:42:56.818Z,2.31
2023-03-30T07:43:56.765Z,2.32
2023-03-30T07:44:56.773Z,2.32
2023-03-30T07:45:57.708Z,2.28
2023-03-30T07:46:56.775Z,2.29
2023-03-30T07:47:56.982Z,2.32
2023-03-30T07:48:56.810Z,2.32
2023-03-30T07:49:56.794Z,2.36
2023-03-30T07:50:56.805Z,2.38
2023-03-30T07:51:56.878Z,2.38
2023-03-30T07:52:56.798Z,2.41
2023-03-30T07:53:56.813Z,2.42
2023-03-30T07:54:56.896Z,2.44
2023-03-30T07:55:56.839Z,2.47
2023-03-30T07:56:56.909Z,2.41
2023-03-30T07:57:56.864Z,2.48
2023-03-30T07:58:57.156Z,2.44
2023-03-30T07:59:56.888Z,2.43
2023-03-30T08:00:57.071Z,2.39
2023-03-30T08:01:56.910Z,2.48
2023-03-30T08:02:56.980Z,2.51
2023-03-30T08:03:56.994Z,2.43
2023-03-30T08:04:57.125Z,2.53
2023-03-30T08:05:56.940Z,2.50
2023-03-30T08:06:56.961Z,2.50
2023-03-30T08:07:56.966Z,2.54
2023-03-30T08:08:56.988Z,2.51
2023-03-30T08:09:56.978Z,2.54
2023-03-30T08:10:57.171Z,2.57
2023-03-30T08:11:56.994Z,2.60
2023-03-30T08:12:57.106Z,2.75
2023-03-30T08:13:57.028Z,2.67
2023-03-30T08:14:57.036Z,2.71
2023-03-30T08:15:57.124Z,2.74
2023-03-30T08:16:57.123Z,2.62
2023-03-30T08:17:57.232Z,2.36
2023-03-30T08:18:57.224Z,2.19
2023-03-30T08:19:57.276Z,2.08
2023-03-30T08:20:57.307Z,1.86
2023-03-30T08:21:57.323Z,1.63
2023-03-30T08:22:57.327Z,1.50
2023-03-30T08:23:57.336Z,1.32
2023-03-30T08:24:57.344Z,1.28
2023-03-30T08:25:57.355Z,1.24
2023-03-30T08:26:57.401Z,1.12
2023-03-30T08:27:57.387Z,1.11
2023-03-30T08:28:57.407Z,1.12
2023-03-30T08:29:57.420Z,1.24
2023-03-30T08:30:57.452Z,1.30
2023-03-30T08:31:57.471Z,1.40
2023-03-30T08:32:57.504Z,1.30
2023-03-30T08:33:57.480Z,1.28
2023-03-30T08:34:57.503Z,1.25
2023-03-30T08:35:57.562Z,1.29
2023-03-30T08:36:57.523Z,1.31
2023-03-30T08:37:57.545Z,1.49
2023-03-30T08:38:57.544Z,1.46
2023-03-30T08:39:58.166Z,1.55
2023-03-30T08:40:57.666Z,1.58
2023-03-30T08:41:57.597Z,1.64
2023-03-30T08:42:58.076Z,1.68
2023-03-30T08:43:57.590Z,1.78
2023-03-30T08:44:58.155Z,1.83
2023-03-30T08:45:57.615Z,1.87
2023-03-30T08:46:57.619Z,1.91
2023-03-30T08:47:57.674Z,1.96
2023-03-30T08:48:57.619Z,1.95
2023-03-30T08:49:57.629Z,2.00
2023-03-30T08:50:57.634Z,2.06
2023-03-30T08:51:57.634Z,2.08
2023-03-30T08:52:57.643Z,2.07
2023-03-30T08:53:57.643Z,2.09
2023-03-30T08:54:57.653Z,2.17
2023-03-30T08:55:57.664Z,2.14
2023-03-30T08:56:57.782Z,2.15
2023-03-30T08:57:57.668Z,2.16
2023-03-30T08:58:57.667Z,2.19
2023-03-30T08:59:57.677Z,2.26
2023-03-30T09:00:57.721Z,2.36
2023-03-30T09:01:57.771Z,2.42
2023-03-30T09:02:57.702Z,2.41
2023-03-30T09:03:57.676Z,2.44
2023-03-30T09:04:57.765Z,2.41
2023-03-30T09:05:57.690Z,2.53
2023-03-30T09:06:57.686Z,2.54
2023-03-30T09:07:57.689Z,2.60
2023-03-30T09:08:57.682Z,2.54
2023-03-30T09:09:57.689Z,2.60
2023-03-30T09:10:57.693Z,2.60
2023-03-30T09:11:57.697Z,2.59
2023-03-30T09:12:57.694Z,2.59
2023-03-30T09:13:57.695Z,2.59
2023-03-30T09:14:58.653Z,2.64
2023-03-30T09:15:57.718Z,2.59
2023-03-30T09:16:58.651Z,2.61
2023-03-30T09:17:58.701Z,2.65
2023-03-30T09:18:57.935Z,2.66
2023-03-30T09:19:57.737Z,2.68
2023-03-30T09:20:57.735Z,2.65
2023-03-30T09:21:57.729Z,2.71
2023-03-30T09:22:57.739Z,2.69
2023-03-30T09:23:57.759Z,2.82
2023-03-30T09:24:57.764Z,2.89
2023-03-30T09:26:01.176Z,2.94
2023-03-30T09:26:57.839Z,3.01
2023-03-30T09:27:57.936Z,3.06
2023-03-30T09:28:57.854Z,3.06
2023-03-30T09:29:57.845Z,3.13
2023-03-30T09:30:57.860Z,3.07
2023-03-30T09:31:57.898Z,3.01
2023-03-30T09:32:57.877Z,3.08
2023-03-30T09:33:57.861Z,2.97
2023-03-30T09:34:57.861Z,3.03
2023-03-30T09:35:57.869Z,3.03
2023-03-30T09:36:57.872Z,2.96
2023-03-30T09:37:57.874Z,2.96
2023-03-30T09:38:57.882Z,3.01
2023-03-30T09:39:57.918Z,3.01
2023-03-30T09:40:57.986Z,2.99
2023-03-30T09:41:58.023Z,3.00
2023-03-30T09:42:57.893Z,2.94
2023-03-30T09:43:57.900Z,2.98
2023-03-30T09:44:57.908Z,3.00
2023-03-30T09:45:57.982Z,2.95
2023-03-30T09:46:57.921Z,2.96
2023-03-30T09:47:58.001Z,3.00
2023-03-30T09:48:57.928Z,2.97
2023-03-30T09:49:57.940Z,2.92
2023-03-30T09:50:57.966Z,2.97
2023-03-30T09:51:58.087Z,2.94
2023-03-30T09:52:57.968Z,2.94
2023-03-30T09:53:57.973Z,2.90
2023-03-30T09:54:57.985Z,2.91
2023-03-30T09:55:58.005Z,2.90
2023-03-30T09:56:58.060Z,2.88
2023-03-30T09:57:58.095Z,2.86
2023-03-30T09:58:58.105Z,2.91
2023-03-30T09:59:58.046Z,2.84
2023-03-30T10:00:58.644Z,2.84
2023-03-30T10:01:58.123Z,2.79
2023-03-30T10:02:58.252Z,2.82
2023-03-30T10:03:58.216Z,2.74
2023-03-30T10:04:58.209Z,2.80
2023-03-30T10:05:58.066Z,2.81
2023-03-30T10:07:02.200Z,2.78
2023-03-30T10:07:59.084Z,2.78
2023-03-30T10:08:58.091Z,2.78
2023-03-30T10:09:58.666Z,2.80
2023-03-30T10:10:58.110Z,2.81
2023-03-30T10:11:58.117Z,2.77
2023-03-30T10:12:58.112Z,2.74
2023-03-30T10:13:58.111Z,2.92
2023-03-30T10:14:58.157Z,2.91
2023-03-30T10:15:58.185Z,2.85
2023-03-30T10:16:58.136Z,2.79
2023-03-30T10:17:58.306Z,2.78
2023-03-30T10:18:58.158Z,2.78
2023-03-30T10:20:11.082Z,2.73
2023-03-30T10:20:59.171Z,2.73
2023-03-30T10:21:58.176Z,2.74
2023-03-30T10:22:58.189Z,2.76
2023-03-30T10:23:58.190Z,2.79
2023-03-30T10:24:58.186Z,2.84
2023-03-30T10:25:58.201Z,2.87
2023-03-30T10:26:58.223Z,2.82
2023-03-30T10:27:58.261Z,2.79
2023-03-30T10:28:59.148Z,2.79
2023-03-30T10:29:58.229Z,2.82
2023-03-30T10:30:58.250Z,2.82
2023-03-30T10:31:58.773Z,2.81
2023-03-30T10:32:58.345Z,2.81
2023-03-30T10:33:58.366Z,2.79
2023-03-30T10:34:58.404Z,2.86
2023-03-30T10:35:58.515Z,2.85
2023-03-30T10:36:58.539Z,2.83
2023-03-30T10:37:58.603Z,2.86
2023-03-30T10:38:58.660Z,2.89
2023-03-30T10:39:58.714Z,2.89
2023-03-30T10:40:58.783Z,2.86
2023-03-30T10:41:59.976Z,2.87
2023-03-30T10:42:58.928Z,3.02
2023-03-30T10:43:58.981Z,3.06
2023-03-30T10:45:00.109Z,3.04
2023-03-30T10:46:06.313Z,3.02
2023-03-30T10:47:00.195Z,3.03
2023-03-30T10:48:00.286Z,3.00
2023-03-30T10:48:59.134Z,3.05
2023-03-30T10:49:59.146Z,3.02
2023-03-30T10:50:59.147Z,3.04
2023-03-30T10:51:59.171Z,3.06
2023-03-30T10:52:59.807Z,3.02
2023-03-30T10:53:59.786Z,3.02
2023-03-30T10:54:59.178Z,3.07
2023-03-30T10:55:59.277Z,3.08
2023-03-30T10:56:59.380Z,3.06
2023-03-30T10:57:59.394Z,3.07
2023-03-30T10:58:59.442Z,3.12
2023-03-30T11:00:00.168Z,3.07
2023-03-30T11:00:59.629Z,3.13
2023-03-30T11:01:59.633Z,3.15
2023-03-30T11:02:59.710Z,3.13
2023-03-30T11:04:02.724Z,3.18
2023-03-30T11:05:00.652Z,3.18
2023-03-30T11:06:01.249Z,3.21
2023-03-30T11:06:59.727Z,3.26
2023-03-30T11:07:59.697Z,3.31
2023-03-30T11:08:59.679Z,3.43
2023-03-30T11:10:00.671Z,3.50
2023-03-30T11:10:59.711Z,3.53
2023-03-30T11:11:59.715Z,3.57
2023-03-30T11:12:59.802Z,3.59
2023-03-30T11:13:59.758Z,3.69
2023-03-30T11:14:59.821Z,3.72
2023-03-30T11:15:59.894Z,3.71
2023-03-30T11:17:00.015Z,3.77
2023-03-30T11:18:00.144Z,3.85
2023-03-30T11:19:00.188Z,3.79
2023-03-30T11:20:00.212Z,3.83
2023-03-30T11:21:00.240Z,3.78
2023-03-30T11:22:00.325Z,3.80
2023-03-30T11:23:00.359Z,3.85
2023-03-30T11:24:00.433Z,3.90
2023-03-30T11:25:00.499Z,3.81
2023-03-30T11:26:00.589Z,3.94
2023-03-30T11:27:00.626Z,3.91
2023-03-30T11:28:00.698Z,3.90
2023-03-30T11:29:00.812Z,3.94
2023-03-30T11:30:01.115Z,4.00
2023-03-30T11:31:00.924Z,4.08
2023-03-30T11:32:00.971Z,4.06
2023-03-30T11:33:01.055Z,4.08
2023-03-30T11:34:01.081Z,4.12
2023-03-30T11:35:01.115Z,4.17
2023-03-30T11:36:01.182Z,4.18
2023-03-30T11:37:01.216Z,4.26
2023-03-30T11:38:01.254Z,4.26
2023-03-30T11:39:01.316Z,4.24
2023-03-30T11:40:01.349Z,4.30
2023-03-30T11:41:01.396Z,4.18
2023-03-30T11:42:01.667Z,4.20
2023-03-30T11:43:01.445Z,4.12
2023-03-30T11:44:01.528Z,3.79
2023-03-30T11:45:02.194Z,3.53
2023-03-30T11:46:03.919Z,3.28
2023-03-30T11:47:01.582Z,3.23
2023-03-30T11:48:01.625Z,3.14
2023-03-30T11:49:02.654Z,3.14
2023-03-30T11:50:01.595Z,3.04
2023-03-30T11:51:01.596Z,2.92
2023-03-30T11:52:01.604Z,2.83
2023-03-30T11:53:01.608Z,2.81
2023-03-30T11:54:01.674Z,2.76
2023-03-30T11:55:03.981Z,2.69
2023-03-30T11:56:01.693Z,2.67
2023-03-30T11:57:01.659Z,2.57
2023-03-30T11:58:02.675Z,2.61
2023-03-30T11:59:01.795Z,2.68
2023-03-30T12:00:01.925Z,2.47
2023-03-30T12:01:02.009Z,2.35
2023-03-30T12:02:02.019Z,2.25
2023-03-30T12:03:02.279Z,1.95
2023-03-30T12:04:02.233Z,1.92
2023-03-30T12:05:02.304Z,1.89
2023-03-30T12:06:02.480Z,1.94
2023-03-30T12:07:02.365Z,1.88
2023-03-30T12:08:02.430Z,1.71
2023-03-30T12:09:03.141Z,1.65
2023-03-30T12:10:04.727Z,1.72
2023-03-30T12:11:03.025Z,1.72
2023-03-30T12:12:02.644Z,1.75
2023-03-30T12:13:02.693Z,1.84
2023-03-30T12:14:02.669Z,2.02
2023-03-30T12:15:02.635Z,2.35
2023-03-30T12:16:03.398Z,2.61
2023-03-30T12:17:02.655Z,2.85
2023-03-30T12:18:02.742Z,3.10
2023-03-30T12:19:02.667Z,3.33
2023-03-30T12:20:03.683Z,3.50
2023-03-30T12:21:02.689Z,3.67
2023-03-30T12:22:02.756Z,3.87
2023-03-30T12:23:02.695Z,3.98
2023-03-30T12:24:02.691Z,4.04
2023-03-30T12:25:02.692Z,4.19
2023-03-30T12:26:03.008Z,4.31
2023-03-30T12:27:06.447Z,4.35
2023-03-30T12:28:03.714Z,4.36
2023-03-30T12:29:26.212Z,4.41
2023-03-30T12:30:03.833Z,4.37
2023-03-30T12:31:02.739Z,4.42
2023-03-30T12:32:02.963Z,4.55
2023-03-30T12:33:02.777Z,4.78
2023-03-30T12:34:02.912Z,5.49
2023-03-30T12:35:02.821Z,5.36
2023-03-30T12:36:03.035Z,5.34
2023-03-30T12:37:02.775Z,5.19
2023-03-30T12:38:02.804Z,5.36
2023-03-30T12:39:02.855Z,5.26
2023-03-30T12:40:02.891Z,5.50
2023-03-30T12:41:02.962Z,5.42
2023-03-30T12:42:02.989Z,5.69
2023-03-30T12:43:03.058Z,5.56
2023-03-30T12:44:03.130Z,5.29
2023-03-30T12:45:03.089Z,5.34
2023-03-30T12:46:03.536Z,5.22
2023-03-30T12:47:06.693Z,5.20
2023-03-30T12:48:03.243Z,5.21
2023-03-30T12:49:05.683Z,5.20
2023-03-30T12:50:03.154Z,5.20
2023-03-30T12:51:03.372Z,5.22
2023-03-30T12:52:03.179Z,5.19
2023-03-30T12:53:04.227Z,5.25
2023-03-30T12:54:03.206Z,5.17
2023-03-30T12:55:03.202Z,5.10
2023-03-30T12:56:03.521Z,5.14
2023-03-30T12:57:03.268Z,4.88
2023-03-30T12:58:03.654Z,4.44
2023-03-30T12:59:03.259Z,4.04
2023-03-30T13:00:03.269Z,3.73
2023-03-30T13:01:03.389Z,3.61
2023-03-30T13:02:03.302Z,3.45
2023-03-30T13:03:03.304Z,3.28
2023-03-30T13:04:03.328Z,3.23
2023-03-30T13:05:03.308Z,3.06
2023-03-30T13:06:03.604Z,2.97
2023-03-30T13:07:03.326Z,2.85
2023-03-30T13:08:03.322Z,2.79
2023-03-30T13:09:03.322Z,2.75
2023-03-30T13:10:06.173Z,2.68
2023-03-30T13:11:03.331Z,2.68
2023-03-30T13:12:03.339Z,2.69
2023-03-30T13:13:03.364Z,2.70
2023-03-30T13:14:03.334Z,2.69
2023-03-30T13:15:03.352Z,2.76
2023-03-30T13:16:03.465Z,2.85
2023-03-30T13:17:04.170Z,2.92
2023-03-30T13:18:03.395Z,2.96
2023-03-30T13:19:03.371Z,2.99
2023-03-30T13:20:03.363Z,2.97
2023-03-30T13:21:03.369Z,3.06